Time;durP1;ratioP1;P1;durP2;ratioP2;P2;SDS_P1;SDS_P2;PMS_P1;PMS_P2;Temp;Humidity;BMP_temperature;BMP_pressure;BME280_temperature;BME280_humidity;BME280_pressure;Samples;Min_cycle;Max_cycle;Signal;HPM_P1;HPM_P2
2021/10/02 00:37:41;;;;;;;;;;;;;;;21.39;53.46;101849.47;2041697;29;1242;-58
2021/10/02 00:41:55;;;;;;;;;;;;;;;21.40;54.16;101854.81;2034107;29;1110;-57
2021/10/02 00:45:34;;;;;;;;;;;;;;;21.41;53.64;101847.63;2026404;29;740;-57
2021/10/02 00:46:34;;;;;;;;;;;;;;;21.55;52.69;101858.09;2026285;29;968;-58
2021/10/02 00:47:35;;;;;;;;;;;;;;;21.44;52.57;101856.53;2026317;29;898;-57
2021/10/02 00:48:36;;;;;;;;;;;;;;;21.55;53.09;101850.88;2026316;29;1109;-57
2021/10/02 00:49:37;;;;;;;;;;;;;;;21.51;52.97;101851.00;2026256;29;1074;-57
2021/10/02 00:50:38;;;;;;;;;;;;;;;21.37;53.55;101841.41;2026396;29;887;-57
2021/10/02 00:51:39;;;;;;;;;;;;;;;21.33;53.46;101834.28;2026171;29;1895;-57
2021/10/02 00:52:41;;;;;;;;;;;;;;;21.47;54.05;101842.13;2026306;29;856;-57
2021/10/02 00:53:41;;;;;;;;;;;;;;;21.52;53.25;101845.56;2026381;29;850;-57
2021/10/02 00:54:42;;;;;;;;;;;;;;;21.57;52.62;101838.25;2028989;29;1096;-57
2021/10/02 00:55:42;;;;;;;;;;;;;;;21.47;53.13;101844.81;2042016;29;919;-58
2021/10/02 00:56:42;;;;;;;;;;;;;;;21.48;53.11;101842.06;2042037;29;1021;-58
2021/10/02 00:57:42;;;;;;;;;;;;;;;21.50;53.78;101842.00;2041678;29;820;-58
2021/10/02 00:58:49;;;;;;;;;;;;;;;21.29;54.12;101843.34;2041959;29;963;-57
2021/10/02 00:59:49;;;;;;;;;;;;;;;21.45;53.17;101839.44;2042015;29;927;-58
2021/10/02 01:00:52;;;;;;;;;;;;;;;21.45;53.01;101843.94;2042070;29;817;-57
2021/10/02 01:01:56;;;;;;;;;;;;;;;21.36;52.72;101836.06;2042003;29;808;-57
2021/10/02 01:03:00;;;;;;;;;;;;;;;21.43;52.40;101835.88;2041641;29;1894;-57
2021/10/02 01:04:22;;;;;;;;;;;;;;;21.40;53.59;101838.63;2041870;29;857;-57
2021/10/02 01:05:51;;;;;;;;;;;;;;;21.51;53.63;101832.13;2042006;29;1406;-57
2021/10/02 01:06:51;;;;;;;;;;;;;;;21.45;52.72;101836.72;2010704;29;1417;-58
2021/10/02 01:07:52;;;;;;;;;;;;;;;21.47;53.85;101837.59;2010946;29;960;-57
2021/10/02 01:09:00;;;;;;;;;;;;;;;21.42;53.00;101835.94;2016758;29;1152;-58
2021/10/02 01:10:19;;;;;;;;;;;;;;;21.37;53.24;101830.63;2026249;29;990;-57
2021/10/02 01:11:34;;;;;;;;;;;;;;;21.29;53.65;101833.47;2025958;29;1986;-58
2021/10/02 01:12:37;;;;;;;;;;;;;;;21.39;52.83;101831.47;2025985;29;1141;-58
2021/10/02 01:13:53;;;;;;;;;;;;;;;21.50;52.61;101828.53;2026097;29;781;-57
2021/10/02 01:14:58;;;;;;;;;;;;;;;21.38;54.63;101837.78;2026234;29;967;-58
2021/10/02 01:16:02;;;;;;;;;;;;;;;21.34;54.30;101833.38;2026332;29;999;-58
2021/10/02 01:17:12;;;;;;;;;;;;;;;21.30;53.90;101829.88;2026184;29;907;-58
2021/10/02 01:18:18;;;;;;;;;;;;;;;21.39;52.94;101830.59;2026268;29;1134;-58
2021/10/02 01:19:31;;;;;;;;;;;;;;;21.37;52.74;101829.75;2026173;29;1108;-59
2021/10/02 01:20:35;;;;;;;;;;;;;;;21.33;53.90;101832.50;2026118;29;1598;-58
2021/10/02 01:21:51;;;;;;;;;;;;;;;21.31;53.07;101830.75;2026182;29;935;-58
2021/10/02 01:23:00;;;;;;;;;;;;;;;21.63;52.02;101818.41;2034112;29;999;-58
2021/10/02 01:24:19;;;;;;;;;;;;;;;21.38;53.41;101827.00;2034150;29;1037;-58
2021/10/02 01:25:26;;;;;;;;;;;;;;;21.53;52.04;101825.78;2033705;29;896;-59
2021/10/02 01:26:52;;;;;;;;;;;;;;;21.39;53.30;101836.00;2034153;29;979;-57
2021/10/02 01:28:04;;;;;;;;;;;;;;;21.37;53.25;101827.91;2032725;29;985;-57
2021/10/02 01:29:07;;;;;;;;;;;;;;;21.35;53.76;101826.19;2034005;29;903;-57
2021/10/02 01:30:14;;;;;;;;;;;;;;;21.38;53.89;101820.75;2034131;29;895;-56
2021/10/02 01:31:25;;;;;;;;;;;;;;;21.47;54.07;101824.13;2035415;29;1906;-55
2021/10/02 01:32:34;;;;;;;;;;;;;;;21.49;53.62;101821.38;2035610;29;852;-55
2021/10/02 01:36:32;;;;;;;;;;;;;;;21.63;52.71;101818.41;2019708;29;1166;-57
2021/10/02 01:37:54;;;;;;;;;;;;;;;21.64;52.53;101817.50;2019819;29;1097;-58
2021/10/02 01:47:11;;;;;;;;;;;;;;;21.46;53.75;101813.38;2058955;28;761;-57
2021/10/02 01:48:13;;;;;;;;;;;;;;;21.48;53.15;101812.41;2059115;28;1063;-57
2021/10/02 01:49:14;;;;;;;;;;;;;;;21.40;53.98;101811.69;2059042;28;1034;-58
2021/10/02 01:50:15;;;;;;;;;;;;;;;21.46;53.77;101803.47;2059061;28;926;-57
2021/10/02 01:51:16;;;;;;;;;;;;;;;21.45;52.86;101800.81;2058876;28;1906;-58
2021/10/02 01:52:19;;;;;;;;;;;;;;;21.45;52.90;101807.09;2059113;28;985;-57
2021/10/02 01:53:21;;;;;;;;;;;;;;;21.38;53.25;101800.03;2058753;28;966;-57
2021/10/02 01:54:21;;;;;;;;;;;;;;;21.55;52.54;101809.59;2059053;28;1139;-58
2021/10/02 01:55:23;;;;;;;;;;;;;;;21.51;52.68;101800.66;2058999;28;908;-57
2021/10/02 01:56:23;;;;;;;;;;;;;;;21.43;53.42;101808.06;2058977;28;806;-58
2021/10/02 01:57:27;;;;;;;;;;;;;;;21.64;52.60;101800.41;2059033;28;883;-57
2021/10/02 01:58:27;;;;;;;;;;;;;;;21.53;53.18;101804.22;2059074;28;851;-57
2021/10/02 01:59:30;;;;;;;;;;;;;;;21.57;52.41;101802.34;2058940;28;875;-57
2021/10/02 02:00:30;;;;;;;;;;;;;;;21.48;51.80;101801.63;2058977;28;1095;-58
2021/10/02 02:01:30;;;;;;;;;;;;;;;21.46;53.34;101798.06;2058999;28;888;-57
2021/10/02 02:02:33;;;;;;;;;;;;;;;21.46;52.71;101800.78;2058698;28;989;-58
2021/10/02 02:03:37;;;;;;;;;;;;;;;21.56;53.03;101798.75;2059019;28;787;-57
2021/10/02 02:04:39;;;;;;;;;;;;;;;21.36;54.32;101796.50;2059024;28;1528;-58
2021/10/02 02:05:40;;;;;;;;;;;;;;;21.37;53.39;101794.72;2058679;28;883;-58
2021/10/02 02:06:42;;;;;;;;;;;;;;;21.42;52.89;101790.97;2059157;28;1037;-57
2021/10/02 02:07:44;;;;;;;;;;;;;;;21.35;53.59;101797.41;2058886;28;1202;-58
2021/10/02 02:08:44;;;;;;;;;;;;;;;21.56;52.21;101796.06;2058886;28;871;-57
2021/10/02 02:09:45;;;;;;;;;;;;;;;21.37;53.00;101792.88;2058967;28;981;-58
2021/10/02 02:10:45;;;;;;;;;;;;;;;21.40;54.19;101798.22;2058684;28;787;-58
2021/10/02 02:11:46;;;;;;;;;;;;;;;21.45;53.52;101790.91;2058663;28;1954;-57
2021/10/02 02:12:48;;;;;;;;;;;;;;;21.39;52.78;101791.03;2058996;28;1064;-58
2021/10/02 02:13:48;;;;;;;;;;;;;;;21.48;52.91;101796.25;2066335;28;1147;-58
2021/10/02 02:14:50;;;;;;;;;;;;;;;21.50;52.87;101798.00;2075975;28;815;-58
2021/10/02 02:15:51;;;;;;;;;;;;;;;21.46;52.39;101792.69;2076001;28;823;-58
2021/10/02 02:16:52;;;;;;;;;;;;;;;21.44;53.18;101793.66;2075930;28;807;-57
2021/10/02 02:17:55;;;;;;;;;;;;;;;21.51;52.23;101802.47;2075902;28;886;-58
2021/10/02 02:18:56;;;;;;;;;;;;;;;21.46;53.21;101808.00;2075513;28;1432;-58
2021/10/02 02:19:57;;;;;;;;;;;;;;;21.45;52.90;101790.91;2075853;28;1176;-57
2021/10/02 02:21:00;;;;;;;;;;;;;;;21.34;53.57;101792.94;2075834;28;906;-58
2021/10/02 02:22:01;;;;;;;;;;;;;;;21.35;53.63;101796.53;2075878;28;820;-58
2021/10/02 02:23:02;;;;;;;;;;;;;;;21.48;53.04;101790.84;2075879;28;950;-58
2021/10/02 02:24:02;;;;;;;;;;;;;;;21.50;52.92;101793.50;2075886;28;803;-58
2021/10/02 02:25:03;;;;;;;;;;;;;;;21.60;51.84;101788.81;2075723;28;1240;-57
2021/10/02 02:26:05;;;;;;;;;;;;;;;21.57;53.07;101789.75;2075876;28;799;-58
2021/10/02 02:27:05;;;;;;;;;;;;;;;21.51;52.72;101792.56;2075743;28;1238;-58
2021/10/02 02:28:06;;;;;;;;;;;;;;;21.47;53.39;101786.38;2075762;28;993;-58
2021/10/02 02:29:07;;;;;;;;;;;;;;;21.52;53.00;101790.78;2075551;28;1657;-58
2021/10/02 02:30:07;;;;;;;;;;;;;;;21.43;53.11;101784.66;2075815;28;890;-58
2021/10/02 02:31:08;;;;;;;;;;;;;;;21.40;53.55;101786.56;2075836;28;887;-58
2021/10/02 02:32:08;;;;;;;;;;;;;;;21.37;53.70;101789.31;2066884;28;2243;-58
2021/10/02 02:33:08;;;;;;;;;;;;;;;21.41;53.21;101789.19;2067182;28;973;-58
2021/10/02 02:34:09;;;;;;;;;;;;;;;21.55;53.08;101779.94;2075699;28;867;-57
2021/10/02 02:35:09;;;;;;;;;;;;;;;21.42;53.55;101785.59;2075823;28;828;-58
2021/10/02 02:36:09;;;;;;;;;;;;;;;21.47;52.64;101777.41;2075884;28;1017;-57
2021/10/02 02:37:09;;;;;;;;;;;;;;;21.43;53.07;101781.97;2075777;28;756;-58
2021/10/02 02:38:10;;;;;;;;;;;;;;;21.41;53.57;101785.63;2066810;28;839;-58
2021/10/02 02:39:10;;;;;;;;;;;;;;;21.54;51.39;101787.09;2067165;28;1129;-58
2021/10/02 02:40:11;;;;;;;;;;;;;;;21.42;53.61;101779.31;2075806;28;764;-58
2021/10/02 02:41:12;;;;;;;;;;;;;;;21.40;53.22;101786.56;2075783;28;834;-58
2021/10/02 02:42:12;;;;;;;;;;;;;;;21.44;53.35;101785.56;2075175;28;815;-58
2021/10/02 02:43:12;;;;;;;;;;;;;;;21.50;52.74;101782.72;2075665;28;1037;-58
2021/10/02 02:44:12;;;;;;;;;;;;;;;21.50;53.13;101788.09;2086004;28;1205;-58
2021/10/02 02:45:13;;;;;;;;;;;;;;;21.50;52.50;101776.44;2092157;28;862;-58
2021/10/02 02:46:17;;;;;;;;;;;;;;;21.32;53.38;101776.81;2091787;28;920;-58
2021/10/02 02:47:21;;;;;;;;;;;;;;;21.53;52.98;101777.25;2092052;28;859;-58
2021/10/02 02:48:24;;;;;;;;;;;;;;;21.39;53.50;101780.25;2092160;28;965;-58
2021/10/02 02:49:27;;;;;;;;;;;;;;;21.40;53.10;101781.16;2092054;28;790;-58
2021/10/02 02:50:31;;;;;;;;;;;;;;;21.48;52.55;101782.75;2092155;28;978;-58
2021/10/02 02:51:54;;;;;;;;;;;;;;;21.39;53.48;101782.09;2091764;28;1893;-58
2021/10/02 02:53:11;;;;;;;;;;;;;;;21.48;52.77;101771.97;2092032;28;957;-58
2021/10/02 02:54:30;;;;;;;;;;;;;;;21.39;53.70;101774.00;2091904;28;930;-58
2021/10/02 02:55:38;;;;;;;;;;;;;;;21.30;53.38;101773.28;2092052;28;898;-58
2021/10/02 02:56:40;;;;;;;;;;;;;;;21.25;53.01;101772.50;2092048;28;965;-58
2021/10/02 02:57:42;;;;;;;;;;;;;;;21.32;54.20;101767.84;2092021;28;783;-58
2021/10/02 02:58:45;;;;;;;;;;;;;;;21.37;53.05;101770.44;2092050;28;970;-58
2021/10/02 02:59:57;;;;;;;;;;;;;;;21.33;53.57;101767.81;2092034;28;855;-58
2021/10/02 03:01:00;;;;;;;;;;;;;;;21.48;52.23;101768.41;2091877;28;948;-58
2021/10/02 03:02:03;;;;;;;;;;;;;;;21.44;53.82;101766.69;2092038;28;828;-58
2021/10/02 03:03:05;;;;;;;;;;;;;;;21.37;52.80;101768.63;2091917;28;985;-58
2021/10/02 03:04:05;;;;;;;;;;;;;;;21.38;53.59;101767.72;2092010;28;1184;-58
2021/10/02 03:05:06;;;;;;;;;;;;;;;21.38;53.51;101769.53;2091832;28;867;-58
2021/10/02 03:06:08;;;;;;;;;;;;;;;21.53;51.86;101761.06;2091960;28;1045;-57
2021/10/02 03:07:10;;;;;;;;;;;;;;;21.35;53.24;101765.06;2091985;28;993;-58
2021/10/02 03:08:16;;;;;;;;;;;;;;;21.31;53.92;101766.06;2091818;28;885;-58
2021/10/02 03:09:17;;;;;;;;;;;;;;;21.32;53.30;101763.34;2091957;28;783;-58
2021/10/02 03:10:17;;;;;;;;;;;;;;;21.33;53.29;101757.03;2091965;28;811;-58
2021/10/02 03:11:19;;;;;;;;;;;;;;;21.39;52.44;101760.53;2091721;28;1902;-58
2021/10/02 03:12:27;;;;;;;;;;;;;;;21.44;53.61;101764.88;2091827;28;1149;-58
2021/10/02 03:13:29;;;;;;;;;;;;;;;21.48;52.56;101755.81;2091641;28;1001;-57
2021/10/02 03:14:30;;;;;;;;;;;;;;;21.25;54.32;101763.50;2091780;28;835;-57
2021/10/02 03:15:31;;;;;;;;;;;;;;;21.42;53.74;101753.25;2091923;28;1064;-58
2021/10/02 03:16:33;;;;;;;;;;;;;;;21.34;53.47;101757.91;2091945;28;835;-58
2021/10/02 03:17:36;;;;;;;;;;;;;;;21.31;53.87;101755.28;2091891;28;1064;-58
2021/10/02 03:18:39;;;;;;;;;;;;;;;21.38;53.73;101759.63;2091902;28;989;-57
2021/10/02 03:19:39;;;;;;;;;;;;;;;21.31;53.20;101755.28;2091845;28;1001;-58
2021/10/02 03:20:40;;;;;;;;;;;;;;;21.39;52.65;101750.63;2092073;28;720;-58
2021/10/02 03:21:41;;;;;;;;;;;;;;;21.31;53.21;101764.28;2091824;28;1032;-57
2021/10/02 03:22:42;;;;;;;;;;;;;;;21.32;53.73;101757.06;2091777;28;820;-58
2021/10/02 03:23:44;;;;;;;;;;;;;;;21.27;53.98;101753.56;2091675;28;893;-58
2021/10/02 03:24:45;;;;;;;;;;;;;;;21.32;53.69;101751.66;2091665;28;970;-58
2021/10/02 03:25:45;;;;;;;;;;;;;;;21.28;54.66;101752.66;2091765;28;831;-58
2021/10/02 03:26:45;;;;;;;;;;;;;;;;;;2091625;28;1009;-58
2021/10/02 03:27:46;;;;;;;;;;;;;;;21.48;51.91;101753.09;2091852;28;783;-58
2021/10/02 03:28:46;;;;;;;;;;;;;;;21.35;52.99;101757.00;2091662;28;997;-57
2021/10/02 03:29:47;;;;;;;;;;;;;;;21.30;54.14;101750.81;2091828;28;787;-58
2021/10/02 03:30:47;;;;;;;;;;;;;;;21.45;51.98;101749.59;2091715;28;989;-58
2021/10/02 03:31:48;;;;;;;;;;;;;;;21.45;52.97;101760.38;2091705;28;1914;-58
2021/10/02 03:32:49;;;;;;;;;;;;;;;21.31;53.90;101760.66;2091765;28;863;-58
2021/10/02 03:33:50;;;;;;;;;;;;;;;21.39;52.76;101760.53;2091780;28;834;-58
2021/10/02 03:34:53;;;;;;;;;;;;;;;21.43;52.85;101765.78;2091443;28;1021;-58
2021/10/02 03:35:54;;;;;;;;;;;;;;;21.37;52.96;101770.44;2091758;28;824;-58
2021/10/02 03:36:54;;;;;;;;;;;;;;;21.36;53.61;101764.16;2091352;28;1001;-58
2021/10/02 03:37:55;;;;;;;;;;;;;;;21.42;52.46;101764.03;2091724;28;919;-58
2021/10/02 03:38:55;;;;;;;;;;;;;;;21.36;52.87;101766.84;2091757;28;996;-57
2021/10/02 03:39:56;;;;;;;;;;;;;;;21.45;53.42;101763.97;2091232;28;925;-58
2021/10/02 03:40:59;;;;;;;;;;;;;;;21.41;52.82;101764.94;2091675;28;1008;-58
2021/10/02 03:42:04;;;;;;;;;;;;;;;21.38;53.18;101777.63;2091717;28;831;-58
2021/10/02 03:43:04;;;;;;;;;;;;;;;21.36;53.04;101772.25;2091665;28;1261;-58
2021/10/02 03:44:04;;;;;;;;;;;;;;;21.33;54.26;101770.50;2087608;28;1566;-58
2021/10/02 03:45:04;;;;;;;;;;;;;;;21.44;52.80;101770.25;2083059;28;906;-58
2021/10/02 03:46:04;;;;;;;;;;;;;;;21.50;53.29;101774.63;2083416;28;937;-58
2021/10/02 03:47:05;;;;;;;;;;;;;;;21.42;53.65;101780.19;2083456;28;815;-58
2021/10/02 03:48:05;;;;;;;;;;;;;;;21.19;54.20;101769.91;2083321;28;847;-58
2021/10/02 03:49:05;;;;;;;;;;;;;;;21.29;53.76;101781.38;2083430;28;1044;-58
2021/10/02 03:50:09;;;;;;;;;;;;;;;21.38;54.08;101778.50;2083368;28;1048;-58
2021/10/02 03:51:09;;;;;;;;;;;;;;;21.42;53.01;101773.94;2083403;28;909;-58
2021/10/02 03:52:10;;;;;;;;;;;;;;;21.39;53.04;101772.19;2083315;28;1951;-58
2021/10/02 03:53:10;;;;;;;;;;;;;;;21.43;52.89;101776.56;2083202;28;914;-58
2021/10/02 03:54:10;;;;;;;;;;;;;;;21.30;53.02;101780.47;2082533;28;1025;-58
2021/10/02 03:55:12;;;;;;;;;;;;;;;21.47;51.97;101772.91;2083275;28;826;-58
2021/10/02 03:56:13;;;;;;;;;;;;;;;21.55;52.45;101779.94;2083090;28;1196;-58
2021/10/02 03:57:14;;;;;;;;;;;;;;;21.38;54.09;101775.78;2083358;28;814;-58
2021/10/02 03:58:14;;;;;;;;;;;;;;;21.35;52.91;101777.69;2074538;28;1217;-58
2021/10/02 03:59:14;;;;;;;;;;;;;;;21.34;52.73;101779.47;2074680;28;1036;-58
2021/10/02 04:00:14;;;;;;;;;;;;;;;21.30;53.96;101784.06;2083352;28;936;-58
2021/10/02 04:01:14;;;;;;;;;;;;;;;21.34;53.13;101782.16;2083169;28;811;-58
2021/10/02 04:02:15;;;;;;;;;;;;;;;21.27;53.93;101777.81;2083321;28;1044;-58
2021/10/02 04:03:15;;;;;;;;;;;;;;;21.38;53.34;101783.88;2083195;28;997;-58
2021/10/02 04:04:15;;;;;;;;;;;;;;;21.98;51.66;101778.94;2083037;28;1096;-58
2021/10/02 04:05:16;;;;;;;;;;;;;;;22.22;50.90;101781.94;2083321;28;828;-58
2021/10/02 04:06:16;;;;;;;;;;;;;;;22.47;49.63;101776.81;2083190;28;894;-58
2021/10/02 04:07:16;;;;;;;;;;;;;;;22.50;49.41;101775.84;2083280;28;1036;-58
2021/10/02 04:08:16;;;;;;;;;;;;;;;22.76;48.38;101779.66;2083286;28;859;-58
2021/10/02 04:09:17;;;;;;;;;;;;;;;22.82;48.01;101784.00;2083049;28;985;-58
2021/10/02 04:10:17;;;;;;;;;;;;;;;22.86;48.63;101783.88;2083313;28;1526;-58
2021/10/02 04:11:17;;;;;;;;;;;;;;;22.92;47.56;101783.72;2083180;28;1890;-58
2021/10/02 04:12:17;;;;;;;;;;;;;;;22.93;48.04;101779.19;2083042;28;1062;-58
2021/10/02 04:13:17;;;;;;;;;;;;;;;23.09;46.82;101780.50;2083192;28;977;-58
2021/10/02 04:14:18;;;;;;;;;;;;;;;22.99;48.55;101781.69;2083038;28;899;-58
2021/10/02 04:15:18;;;;;;;;;;;;;;;23.10;47.72;101786.78;2083171;28;846;-58
2021/10/02 04:16:18;;;;;;;;;;;;;;;23.18;48.37;101784.75;2083315;28;969;-57
2021/10/02 04:17:18;;;;;;;;;;;;;;;23.20;47.27;101788.28;2083216;28;715;-58
2021/10/02 04:18:18;;;;;;;;;;;;;;;23.21;47.12;101779.25;2083252;28;811;-58
2021/10/02 04:19:19;;;;;;;;;;;;;;;23.28;47.96;101779.09;2083170;28;764;-58
2021/10/02 04:20:19;;;;;;;;;;;;;;;23.28;47.16;101779.97;2083202;28;1033;-58
2021/10/02 04:21:19;;;;;;;;;;;;;;;23.31;47.78;101781.72;2083197;28;994;-58
2021/10/02 04:22:19;;;;;;;;;;;;;;;23.30;48.15;101786.22;2083031;28;871;-57
2021/10/02 04:23:19;;;;;;;;;;;;;;;23.31;47.81;101779.00;2083085;28;1044;-58
2021/10/02 04:24:20;;;;;;;;;;;;;;;23.36;47.32;101780.63;2083317;28;834;-58
2021/10/02 04:25:20;;;;;;;;;;;;;;;23.42;46.99;101778.69;2083157;28;858;-58
2021/10/02 04:26:21;;;;;;;;;;;;;;;23.43;47.29;101772.34;2083170;28;977;-58
2021/10/02 04:27:21;;;;;;;;;;;;;;;23.36;47.30;101780.63;2083192;28;823;-58
2021/10/02 04:28:22;;;;;;;;;;;;;;;23.46;47.34;101780.34;2083230;28;826;-58
2021/10/02 04:29:22;;;;;;;;;;;;;;;23.49;47.94;101777.56;2083001;28;859;-58
2021/10/02 04:30:22;;;;;;;;;;;;;;;23.48;46.94;101776.69;2083107;28;985;-58
2021/10/02 04:31:22;;;;;;;;;;;;;;;23.53;46.90;101777.44;2083097;28;1977;-58
2021/10/02 04:32:22;;;;;;;;;;;;;;;23.53;47.47;101779.22;2083207;28;823;-58
2021/10/02 04:33:23;;;;;;;;;;;;;;;23.56;46.84;101783.66;2083204;28;848;-58
2021/10/02 04:34:24;;;;;;;;;;;;;;;23.59;46.28;101775.44;2083204;28;896;-58
2021/10/02 04:35:24;;;;;;;;;;;;;;;23.57;47.56;101774.59;2083080;28;1057;-58
2021/10/02 04:36:24;;;;;;;;;;;;;;;23.58;47.20;101773.66;2082884;28;990;-58
2021/10/02 04:37:24;;;;;;;;;;;;;;;23.54;47.04;101779.19;2083198;28;978;-58
2021/10/02 04:38:25;;;;;;;;;;;;;;;23.62;47.00;101780.75;2083180;28;827;-57
2021/10/02 04:39:26;;;;;;;;;;;;;;;23.63;46.72;101779.81;2083032;28;1105;-58
2021/10/02 04:40:26;;;;;;;;;;;;;;;23.68;46.99;101773.34;2082984;28;815;-58
2021/10/02 04:41:26;;;;;;;;;;;;;;;23.65;47.34;101776.16;2083067;28;867;-58
2021/10/02 04:42:27;;;;;;;;;;;;;;;23.67;46.25;101778.78;2083137;28;786;-58
2021/10/02 04:43:27;;;;;;;;;;;;;;;23.69;47.21;101768.81;2083144;28;1037;-58
2021/10/02 04:44:27;;;;;;;;;;;;;;;23.64;47.71;101778.88;2090035;28;1501;-58
2021/10/02 04:45:27;;;;;;;;;;;;;;;23.65;47.44;101780.66;2091316;28;791;-58
2021/10/02 04:46:27;;;;;;;;;;;;;;;23.68;46.11;101778.75;2091428;28;999;-59
2021/10/02 04:47:27;;;;;;;;;;;;;;;23.73;45.73;101770.47;2091355;28;847;-58
2021/10/02 04:48:28;;;;;;;;;;;;;;;23.70;46.90;101765.16;2091404;28;986;-58
2021/10/02 04:49:28;;;;;;;;;;;;;;;23.68;47.27;101775.16;2091382;28;768;-58
2021/10/02 04:50:28;;;;;;;;;;;;;;;23.72;45.81;101774.13;2091375;28;903;-58
2021/10/02 04:51:28;;;;;;;;;;;;;;;23.77;46.30;101772.16;2091313;28;1906;-58
2021/10/02 04:52:28;;;;;;;;;;;;;;;23.74;45.96;101768.69;2091109;28;989;-58
2021/10/02 04:53:29;;;;;;;;;;;;;;;23.76;47.06;101764.97;2084862;28;1341;-57
2021/10/02 04:54:29;;;;;;;;;;;;;;;23.76;46.37;101770.38;2083103;28;792;-58
2021/10/02 04:55:29;;;;;;;;;;;;;;;23.72;45.89;101768.72;2082871;28;772;-58
2021/10/02 04:56:30;;;;;;;;;;;;;;;23.79;45.71;101766.72;2083103;28;970;-58
2021/10/02 04:57:30;;;;;;;;;;;;;;;23.78;47.10;101773.91;2082770;28;883;-58
2021/10/02 04:58:30;;;;;;;;;;;;;;;23.77;46.96;101768.56;2082869;28;867;-58
2021/10/02 04:59:30;;;;;;;;;;;;;;;23.81;45.74;101768.41;2083118;28;780;-58
2021/10/02 05:00:30;;;;;;;;;;;;;;;23.75;47.26;101767.75;2082978;28;772;-58
2021/10/02 05:01:30;;;;;;;;;;;;;;;23.79;47.70;101764.88;2082761;28;993;-58
2021/10/02 05:02:31;;;;;;;;;;;;;;;23.81;46.67;101759.44;2083127;28;1509;-58
2021/10/02 05:03:31;;;;;;;;;;;;;;;23.79;47.14;101764.88;2082768;28;994;-58
2021/10/02 05:04:31;;;;;;;;;;;;;;;23.79;45.92;101764.88;2082974;28;1006;-58
2021/10/02 05:05:31;;;;;;;;;;;;;;;23.77;46.93;101765.88;2083754;28;813;-58
2021/10/02 05:06:31;;;;;;;;;;;;;;;23.78;46.28;101764.94;2084639;28;920;-58
2021/10/02 05:07:31;;;;;;;;;;;;;;;23.84;45.39;101771.03;2084672;28;827;-58
2021/10/02 05:08:32;;;;;;;;;;;;;;;23.84;47.25;101767.44;2084679;28;946;-58
2021/10/02 05:09:32;;;;;;;;;;;;;;;23.84;45.38;101768.31;2084459;28;882;-58
2021/10/02 05:10:32;;;;;;;;;;;;;;;23.82;47.26;101775.59;2084544;28;1335;-58
2021/10/02 05:11:32;;;;;;;;;;;;;;;23.85;47.29;101769.19;2084559;28;1973;-58
2021/10/02 05:12:32;;;;;;;;;;;;;;;23.89;47.35;101770.00;2084197;28;1149;-58
2021/10/02 05:13:34;;;;;;;;;;;;;;;23.87;46.29;101766.44;2084679;28;906;-58
2021/10/02 05:14:34;;;;;;;;;;;;;;;23.86;46.53;101761.97;2084624;28;897;-58
2021/10/02 05:15:34;;;;;;;;;;;;;;;23.88;46.12;101773.63;2084579;28;922;-58
2021/10/02 05:16:34;;;;;;;;;;;;;;;23.82;46.41;101764.78;2084663;28;780;-58
2021/10/02 05:17:35;;;;;;;;;;;;;;;23.84;46.93;101759.34;2084564;28;1053;-58
2021/10/02 05:18:35;;;;;;;;;;;;;;;23.91;46.22;101762.72;2084613;28;989;-58
2021/10/02 05:19:35;;;;;;;;;;;;;;;23.91;47.10;101771.69;2084565;28;1044;-58
2021/10/02 05:20:35;;;;;;;;;;;;;;;23.82;47.25;101759.38;2084323;28;815;-58
2021/10/02 05:21:35;;;;;;;;;;;;;;;23.89;46.11;101756.47;2084581;28;986;-58
2021/10/02 05:22:35;;;;;;;;;;;;;;;23.80;46.71;101757.66;2084534;28;1141;-58
2021/10/02 05:23:35;;;;;;;;;;;;;;;23.82;46.29;101758.50;2084135;28;981;-57
2021/10/02 05:24:37;;;;;;;;;;;;;;;23.87;46.88;101767.31;2084585;28;989;-56
2021/10/02 05:25:37;;;;;;;;;;;;;;;23.79;47.13;101761.31;2084471;28;863;-57
2021/10/02 05:26:37;;;;;;;;;;;;;;;23.88;46.26;101762.81;2084580;28;977;-57
2021/10/02 05:27:37;;;;;;;;;;;;;;;23.94;45.90;101762.59;2084437;28;855;-57
2021/10/02 05:28:37;;;;;;;;;;;;;;;23.95;46.22;101762.53;2084475;28;867;-57
2021/10/02 05:29:40;;;;;;;;;;;;;;;23.91;46.69;101765.41;2084330;28;1541;-57
2021/10/02 05:30:40;;;;;;;;;;;;;;;23.84;47.64;101762.91;2084383;28;784;-58
2021/10/02 05:31:40;;;;;;;;;;;;;;;23.92;45.97;101761.78;2084309;28;1968;-57
2021/10/02 05:32:40;;;;;;;;;;;;;;;23.92;45.61;101769.88;2084498;28;994;-58
2021/10/02 05:33:40;;;;;;;;;;;;;;;23.96;46.21;101764.31;2084253;28;871;-57
2021/10/02 05:34:41;;;;;;;;;;;;;;;23.99;46.43;101763.38;2084520;28;860;-57
2021/10/02 05:35:41;;;;;;;;;;;;;;;24.00;45.86;101756.13;2084431;28;1009;-58
2021/10/02 05:36:41;;;;;;;;;;;;;;;23.89;47.41;101759.16;2084487;28;993;-58
2021/10/02 05:37:42;;;;;;;;;;;;;;;23.95;46.72;101764.38;2084480;28;1149;-57
2021/10/02 05:38:42;;;;;;;;;;;;;;;23.96;46.67;101755.31;2084314;28;812;-57
2021/10/02 05:39:42;;;;;;;;;;;;;;;24.01;46.67;101758.78;2084399;28;862;-57
2021/10/02 05:40:43;;;;;;;;;;;;;;;23.95;45.81;101753.56;2084457;28;1050;-57
2021/10/02 05:41:43;;;;;;;;;;;;;;;23.93;46.20;101759.00;2084472;28;1024;-57
2021/10/02 05:42:43;;;;;;;;;;;;;;;23.98;45.89;101756.16;2084352;28;843;-57
2021/10/02 05:43:43;;;;;;;;;;;;;;;23.97;46.07;101760.66;2085683;28;1198;-57
2021/10/02 05:44:44;;;;;;;;;;;;;;;23.92;47.25;101753.66;2092499;28;787;-58
2021/10/02 05:45:44;;;;;;;;;;;;;;;23.87;46.34;101761.03;2092691;28;985;-58
2021/10/02 05:46:44;;;;;;;;;;;;;;;23.91;46.64;101757.28;2092663;28;864;-58
2021/10/02 05:47:45;;;;;;;;;;;;;;;24.01;45.67;101766.00;2092659;28;958;-58
2021/10/02 05:48:45;;;;;;;;;;;;;;;23.94;47.59;101763.47;2092666;28;1043;-57
2021/10/02 05:49:45;;;;;;;;;;;;;;;23.94;47.05;101765.31;2092654;28;818;-58
2021/10/02 05:50:45;;;;;;;;;;;;;;;23.96;47.06;101756.19;2092585;28;973;-58
2021/10/02 05:51:45;;;;;;;;;;;;;;;24.00;47.18;101762.44;2092545;28;1894;-58
2021/10/02 05:52:46;;;;;;;;;;;;;;;23.93;46.83;101768.94;2092516;28;1036;-58
2021/10/02 05:53:46;;;;;;;;;;;;;;;23.96;46.53;101774.25;2083759;28;803;-58
2021/10/02 05:54:46;;;;;;;;;;;;;;;23.99;46.52;101768.78;2083491;28;894;-58
2021/10/02 05:55:46;;;;;;;;;;;;;;;24.04;45.78;101765.91;2092536;28;856;-58
2021/10/02 05:56:48;;;;;;;;;;;;;;;23.97;47.61;101767.91;2092546;28;756;-58
2021/10/02 05:57:48;;;;;;;;;;;;;;;24.02;46.16;101763.28;2092495;28;811;-58
2021/10/02 05:58:48;;;;;;;;;;;;;;;23.97;45.70;101759.81;2092509;28;985;-58
2021/10/02 05:59:48;;;;;;;;;;;;;;;24.01;47.10;101763.31;2092446;28;865;-58
2021/10/02 06:00:48;;;;;;;;;;;;;;;23.97;46.63;101767.91;2092433;28;1040;-58
2021/10/02 06:01:49;;;;;;;;;;;;;;;23.90;47.29;101771.75;2092541;28;820;-58
2021/10/02 06:02:49;;;;;;;;;;;;;;;23.96;47.50;101769.72;2092060;28;1025;-58
2021/10/02 06:03:49;;;;;;;;;;;;;;;23.99;45.88;101774.19;2092576;28;977;-58
2021/10/02 06:04:49;;;;;;;;;;;;;;;23.97;47.79;101773.34;2092360;28;1005;-58
2021/10/02 06:05:49;;;;;;;;;;;;;;;23.92;47.04;101772.59;2092534;28;1033;-58
2021/10/02 06:06:49;;;;;;;;;;;;;;;24.00;45.97;101773.25;2092462;28;815;-58
2021/10/02 06:07:49;;;;;;;;;;;;;;;23.96;47.16;101777.84;2092559;28;655;-58
2021/10/02 06:08:50;;;;;;;;;;;;;;;23.91;45.79;101776.22;2092444;28;879;-58
2021/10/02 06:09:51;;;;;;;;;;;;;;;23.98;46.19;101773.28;2092499;28;997;-58
2021/10/02 06:10:51;;;;;;;;;;;;;;;23.98;46.44;101776.00;2092060;28;869;-58
2021/10/02 06:11:51;;;;;;;;;;;;;;;23.98;47.26;101777.81;2092221;28;1902;-58
2021/10/02 06:12:54;;;;;;;;;;;;;;;24.03;46.21;101778.56;2092262;28;918;-58
2021/10/02 06:13:57;;;;;;;;;;;;;;;24.00;46.79;101777.78;2092495;28;858;-58
2021/10/02 06:14:57;;;;;;;;;;;;;;;24.01;45.52;101785.84;2092454;28;842;-58
2021/10/02 06:15:58;;;;;;;;;;;;;;;23.98;46.50;101773.28;2092509;28;828;-59
2021/10/02 06:16:58;;;;;;;;;;;;;;;24.00;45.45;101775.97;2091487;28;1125;-58
2021/10/02 06:17:59;;;;;;;;;;;;;;;23.95;46.72;101775.19;2092313;28;981;-59
2021/10/02 06:18:59;;;;;;;;;;;;;;;23.94;46.69;101782.41;2092357;28;865;-58
2021/10/02 06:19:59;;;;;;;;;;;;;;;23.97;46.18;101781.44;2092383;28;1029;-59